map of KRCX home
Great Circle Mapper logo
KRCX - Airport
Location
City:  Ladysmith, Wisconsin, United States
Name:Rusk County Airport
ICAO:KRCX
FAA:RCX

Details
Type:Airport (Airfield)
Use:Public/Civil
Latitude:4529'48"N (45.496586)
Longitude:9100'01"W (-91.000186)
Datum:WGS 1984
Elevation:1240 ft (378 m)
Runways:2
Longest:4001 × 75 ft (1220 × 23 m), paved

Time
Time Zone:UTC-6 (DST-5)
Local Time:

Weather
METAR:KRCX 290615Z AUTO 00000KT 10SM CLR 14/12 A3011 RMK AO2 T01400123

Related Locations
Nearby:
Farthest:MGV: 10846 mi / 17455 km
Margaret River, WA, AU

Find:

   beyond  
but within

Other Information
Maps:
NOTAMs:
Links:
Sources:

  
flag of United States
flag of Wisconsin
  

Sectional Chart

Flight Planning
at skyvector.com

Satellite Image

Google Maps Satellite View

 

Copyright © 2004-2014 Karl L. Swartz. All rights reserved.
The Great Circle Mapper name and logo are trademarks of the Great Circle Mapper.
All other trademarks mentioned herein belong to their respective owners.
Please see credits for attibutions and further copyright information.

  Follow gcmap on Facebook Follow gcmap on Twitter

hCard Microformat

Geo Microformat